Strona główna
METAR-TAF:

METAR-TAF

Lotnisko :

Port lotniczy Bruksela-Charleroi

Charleroi, Belgia

Szerokość geograficzna: 50-28N, Długość geograficzna: 004-27E, wysokość: 187 m

Aktualna obserwacja pogody

Raport powstał 32 minut temu, godzina 00:50 UTC
Wiatr 5 kt od wschodnio-południowy wschód
Temperatura 7°C
Wilgotność 57%
Ciśnienie 1021 hPa
Widzialność 10 km lub więcej
Brak chmur poniżej 1500 m i brak chmur cumulonimbus

METAR: EBCI 050050Z AUTO 11005KT CAVOK 07/M01 Q1021

czas: 03:22 (01:22 UTC)

Prognoza

Raport powstał 2 godziny i 12 minut temu, godzina 23:10 UTC
Prognoza ważna od 05 godzina 00 UTC do 06 godzina 06 UTC
Wiatr 5 kt od wschodnio-południowy wschód
Widzialność 10 km lub więcej
Brak chmur poniżej 1500 m i brak chmur cumulonimbus

TAF: EBCI 042310Z 0500/0606 12005KT CAVOK

Obserwacja i prognoza pogody dla ponad 4000 lotnisk (raport METAR i TAF).

Dostępne stacje oznaczono żółtymi i czerwonymi punktami na mapie.

Najedź kursorem aby zobaczyć nazwę stacji.

Kliknij aby zobaczyć obserwacje i prognozy pogody.

Aby zmienić mapę: kliknij na zielony przycisk z czarnym krzyżykiem, aby powiększyć; na zielony przycisk z myślnikiem, aby pomniejszyć; na zielone strzałki, aby przejść do map sąsiednich.


METAR-TAF: